createdAt,value
2022-12-25T00:00:49.352Z,4.94
2022-12-25T00:03:56.992Z,4.97
2022-12-25T00:07:01.509Z,4.94
2022-12-25T00:10:04.566Z,4.97
2022-12-25T00:13:06.914Z,5.02
2022-12-25T00:16:18.073Z,5.02
2022-12-25T00:19:21.678Z,4.99
2022-12-25T00:22:24.354Z,4.95
2022-12-25T00:25:26.667Z,5.00
2022-12-25T00:28:29.433Z,5.14
2022-12-25T00:31:31.835Z,5.49
2022-12-25T00:34:34.726Z,5.76
2022-12-25T00:37:37.486Z,5.84
2022-12-25T00:40:44.176Z,5.98
2022-12-25T00:43:46.629Z,6.00
2022-12-25T00:46:49.358Z,6.03
2022-12-25T00:49:52.109Z,6.06
2022-12-25T00:52:54.802Z,6.04
2022-12-25T00:55:58.984Z,6.04
2022-12-25T00:59:01.622Z,5.93
2022-12-25T01:02:27.267Z,5.86
2022-12-25T01:05:30.411Z,5.82
2022-12-25T01:08:36.865Z,5.73
2022-12-25T01:11:39.557Z,5.62
2022-12-25T01:14:41.846Z,5.58
2022-12-25T01:17:44.655Z,5.53
2022-12-25T01:20:47.124Z,5.49
2022-12-25T01:23:50.722Z,5.44
2022-12-25T01:26:53.738Z,5.40
2022-12-25T01:29:56.565Z,5.49
2022-12-25T01:32:58.964Z,5.50
2022-12-25T01:36:01.592Z,5.43
2022-12-25T01:39:04.253Z,5.31
2022-12-25T01:42:06.976Z,5.27
2022-12-25T01:45:32.070Z,5.28
2022-12-25T01:48:37.098Z,5.24
2022-12-25T01:51:42.419Z,5.22
2022-12-25T01:54:57.652Z,5.17
2022-12-25T01:58:00.007Z,5.11
2022-12-25T02:01:03.075Z,5.15
2022-12-25T02:04:09.239Z,5.17
2022-12-25T02:07:14.014Z,5.08
2022-12-25T02:10:17.110Z,5.10
2022-12-25T02:13:20.214Z,4.98
2022-12-25T02:16:26.258Z,4.86
2022-12-25T02:19:42.899Z,4.78
2022-12-25T02:22:57.849Z,4.70
2022-12-25T02:26:06.140Z,4.62
2022-12-25T02:29:24.963Z,4.67
2022-12-25T02:32:33.130Z,4.68
2022-12-25T02:35:36.104Z,4.65
2022-12-25T02:39:00.574Z,4.62
2022-12-25T02:42:05.991Z,4.67
2022-12-25T02:45:27.612Z,4.63
2022-12-25T02:48:54.389Z,4.71
2022-12-25T02:52:29.071Z,4.75
2022-12-25T02:55:54.456Z,4.75
2022-12-25T02:59:17.214Z,4.71
2022-12-25T03:02:40.195Z,4.71
2022-12-25T03:06:01.992Z,4.71
2022-12-25T03:09:23.869Z,4.70
2022-12-25T03:12:34.369Z,4.67
2022-12-25T03:15:55.838Z,4.64
2022-12-25T03:18:58.755Z,4.59
2022-12-25T03:22:20.175Z,4.53
2022-12-25T03:25:40.902Z,4.53
2022-12-25T03:28:43.834Z,4.51
2022-12-25T03:31:53.050Z,4.49
2022-12-25T03:35:17.746Z,4.49
2022-12-25T03:38:47.253Z,4.39
2022-12-25T03:42:17.408Z,4.43
2022-12-25T03:45:43.394Z,4.56
2022-12-25T03:49:10.081Z,4.44
2022-12-25T03:52:34.281Z,4.45
2022-12-25T03:55:55.619Z,4.38
2022-12-25T03:59:23.125Z,4.36
2022-12-25T04:02:45.001Z,4.29
2022-12-25T04:06:06.238Z,4.19
2022-12-25T04:09:27.045Z,4.45
2022-12-25T04:12:48.413Z,4.42
2022-12-25T04:16:12.521Z,4.38
2022-12-25T04:19:33.691Z,4.41
2022-12-25T04:22:54.911Z,4.31
2022-12-25T04:26:16.904Z,4.18
2022-12-25T04:29:37.970Z,4.27
2022-12-25T04:32:59.442Z,4.33
2022-12-25T04:36:13.749Z,4.28
2022-12-25T04:39:16.727Z,4.35
2022-12-25T04:42:19.296Z,4.41
2022-12-25T04:45:22.488Z,4.42
2022-12-25T04:48:25.745Z,4.34
2022-12-25T04:51:28.764Z,4.53
2022-12-25T04:54:31.183Z,4.61
2022-12-25T04:57:33.948Z,4.45
2022-12-25T05:00:36.611Z,4.35
2022-12-25T05:03:39.809Z,4.25
2022-12-25T05:06:42.369Z,4.19
2022-12-25T05:09:44.898Z,4.07
2022-12-25T05:12:47.356Z,3.94
2022-12-25T05:15:49.963Z,3.81
2022-12-25T05:18:52.793Z,3.77
2022-12-25T05:21:57.669Z,3.70
2022-12-25T05:24:59.968Z,3.70
2022-12-25T05:28:02.557Z,3.73
2022-12-25T05:31:04.923Z,3.59
2022-12-25T05:34:07.578Z,3.51
2022-12-25T05:37:09.989Z,3.38
2022-12-25T05:40:12.738Z,3.38
2022-12-25T05:43:15.104Z,3.36
2022-12-25T05:46:18.029Z,3.24
2022-12-25T05:49:20.546Z,3.16
2022-12-25T05:52:23.471Z,3.05
2022-12-25T05:55:25.808Z,3.17
2022-12-25T05:58:29.106Z,3.15
2022-12-25T06:01:31.711Z,3.22
2022-12-25T06:04:34.429Z,3.11
2022-12-25T06:07:36.783Z,2.95
2022-12-25T06:10:39.356Z,2.83
2022-12-25T06:13:41.806Z,2.75
2022-12-25T06:16:44.662Z,2.78
2022-12-25T06:19:47.109Z,2.75
2022-12-25T06:22:49.873Z,2.87
2022-12-25T06:25:52.434Z,2.87
2022-12-25T06:28:55.050Z,2.80
2022-12-25T06:31:57.592Z,2.76
2022-12-25T06:35:00.328Z,2.71
2022-12-25T06:38:02.655Z,2.73
2022-12-25T06:41:13.814Z,2.80
2022-12-25T06:44:16.183Z,2.67
2022-12-25T06:47:18.789Z,2.71
2022-12-25T06:50:21.211Z,2.70
2022-12-25T06:53:23.825Z,2.67
2022-12-25T06:56:27.647Z,2.62
2022-12-25T06:59:30.587Z,2.66
2022-12-25T07:02:33.566Z,2.71
2022-12-25T07:05:36.304Z,2.63
2022-12-25T07:08:38.891Z,2.61
2022-12-25T07:11:42.390Z,2.69
2022-12-25T07:14:45.705Z,2.71
2022-12-25T07:17:48.388Z,2.81
2022-12-25T07:20:50.832Z,2.91
2022-12-25T07:23:53.595Z,2.92
2022-12-25T07:26:55.925Z,2.88
2022-12-25T07:29:58.598Z,2.93
2022-12-25T07:33:00.984Z,2.98
2022-12-25T07:36:05.355Z,2.98
2022-12-25T07:39:09.916Z,2.99
2022-12-25T07:42:12.632Z,2.98
2022-12-25T07:45:15.067Z,3.01
2022-12-25T07:48:17.806Z,3.11
2022-12-25T07:51:20.875Z,3.26
2022-12-25T07:54:23.773Z,3.51
2022-12-25T07:57:26.176Z,3.63
2022-12-25T08:00:32.721Z,3.68
2022-12-25T08:03:36.052Z,3.88
2022-12-25T08:06:38.739Z,4.38
2022-12-25T08:09:41.608Z,4.68
2022-12-25T08:12:43.901Z,4.62
2022-12-25T08:15:46.548Z,4.61
2022-12-25T08:18:48.992Z,4.47
2022-12-25T08:21:51.689Z,4.40
2022-12-25T08:24:54.017Z,4.28
2022-12-25T08:27:56.676Z,4.31
2022-12-25T08:30:59.066Z,4.39
2022-12-25T08:34:02.527Z,4.64
2022-12-25T08:37:04.987Z,4.86
2022-12-25T08:40:08.060Z,5.02
2022-12-25T08:43:10.483Z,5.17
2022-12-25T08:46:13.292Z,5.13
2022-12-25T08:49:16.486Z,5.14
2022-12-25T08:52:19.096Z,5.12
2022-12-25T08:55:21.704Z,5.18
2022-12-25T08:58:24.609Z,5.35
2022-12-25T09:01:27.036Z,5.40
2022-12-25T09:04:30.087Z,5.46
2022-12-25T09:07:32.305Z,5.47
2022-12-25T09:10:36.504Z,5.56
2022-12-25T09:13:39.235Z,5.78
2022-12-25T09:16:41.939Z,6.01
2022-12-25T09:19:44.329Z,6.24
2022-12-25T09:22:46.951Z,6.40
2022-12-25T09:25:49.413Z,6.56
2022-12-25T09:28:52.796Z,6.72
2022-12-25T09:31:55.428Z,6.94
2022-12-25T09:34:58.191Z,7.27
2022-12-25T09:38:00.540Z,7.62
2022-12-25T09:41:07.192Z,7.99
2022-12-25T09:44:20.925Z,8.44
2022-12-25T09:47:25.502Z,8.94
2022-12-25T09:50:27.849Z,9.39
2022-12-25T09:53:40.713Z,9.89
2022-12-25T09:56:43.105Z,10.36
2022-12-25T09:59:47.495Z,10.49
2022-12-25T10:02:50.023Z,10.88
2022-12-25T10:05:52.753Z,10.92
2022-12-25T10:09:11.217Z,11.10
2022-12-25T10:12:34.819Z,11.06
2022-12-25T10:15:40.461Z,11.35
2022-12-25T10:19:21.725Z,11.45
2022-12-25T10:22:30.274Z,11.29
2022-12-25T10:25:33.001Z,10.98
2022-12-25T10:28:39.945Z,10.72
2022-12-25T10:31:45.341Z,10.61
2022-12-25T10:34:48.449Z,10.54
2022-12-25T10:38:01.635Z,10.27
2022-12-25T10:41:04.017Z,10.12
2022-12-25T10:44:14.087Z,9.93
2022-12-25T10:47:23.436Z,9.83
2022-12-25T10:50:26.260Z,9.76
2022-12-25T10:53:29.349Z,9.84
2022-12-25T10:56:31.971Z,9.88
2022-12-25T10:59:35.473Z,9.93
2022-12-25T11:02:40.633Z,10.07
2022-12-25T11:05:43.344Z,10.28
2022-12-25T11:08:51.116Z,10.48
2022-12-25T11:11:53.564Z,10.62
2022-12-25T11:14:57.734Z,10.75
2022-12-25T11:18:00.222Z,10.96
2022-12-25T11:21:05.113Z,11.13
2022-12-25T11:24:18.038Z,11.24
2022-12-25T11:27:23.426Z,11.32
2022-12-25T11:30:26.138Z,11.40
2022-12-25T11:33:42.116Z,11.41
2022-12-25T11:36:46.206Z,11.44
2022-12-25T11:39:49.110Z,11.54
2022-12-25T11:42:52.990Z,11.60
2022-12-25T11:45:59.721Z,11.67
2022-12-25T11:49:05.604Z,11.76
2022-12-25T11:52:10.854Z,11.64
2022-12-25T11:55:29.808Z,11.57
2022-12-25T11:58:51.075Z,11.56
2022-12-25T12:02:00.318Z,11.74
2022-12-25T12:05:23.219Z,11.76
2022-12-25T12:08:25.622Z,11.77
2022-12-25T12:11:33.017Z,11.76
2022-12-25T12:14:43.109Z,11.78
2022-12-25T12:17:45.766Z,11.82
2022-12-25T12:21:06.671Z,11.81
2022-12-25T12:24:20.910Z,11.78
2022-12-25T12:27:39.783Z,11.71
2022-12-25T12:30:42.562Z,11.96
2022-12-25T12:33:53.505Z,11.94
2022-12-25T12:37:05.084Z,11.95
2022-12-25T12:40:21.254Z,11.81
2022-12-25T12:43:29.911Z,11.68
2022-12-25T12:46:35.539Z,11.49
2022-12-25T12:49:38.277Z,11.42
2022-12-25T12:52:42.048Z,11.44
2022-12-25T12:55:44.607Z,11.31
2022-12-25T12:58:50.125Z,11.08
2022-12-25T13:01:58.675Z,11.09
2022-12-25T13:05:03.822Z,11.08
2022-12-25T13:08:25.441Z,11.12
2022-12-25T13:11:29.581Z,11.04
2022-12-25T13:14:32.688Z,10.97
2022-12-25T13:17:35.428Z,10.93
2022-12-25T13:20:47.367Z,11.08
2022-12-25T13:23:55.769Z,11.02
2022-12-25T13:26:58.661Z,11.09
2022-12-25T13:30:11.203Z,11.17
2022-12-25T13:33:17.249Z,11.33
2022-12-25T13:36:19.585Z,11.38
2022-12-25T13:39:25.025Z,11.39
2022-12-25T13:42:30.205Z,11.31
2022-12-25T13:45:34.951Z,11.31
2022-12-25T13:48:37.313Z,11.30
2022-12-25T13:51:39.972Z,11.38
2022-12-25T13:54:56.413Z,11.44
2022-12-25T13:58:00.398Z,11.47
2022-12-25T14:01:03.676Z,11.45
2022-12-25T14:04:13.631Z,11.43
2022-12-25T14:07:18.805Z,11.46
2022-12-25T14:10:25.710Z,11.57
2022-12-25T14:13:31.829Z,11.47
2022-12-25T14:16:34.929Z,11.44
2022-12-25T14:19:37.536Z,11.38
2022-12-25T14:22:41.625Z,11.25
2022-12-25T14:25:45.661Z,11.22
2022-12-25T14:28:57.699Z,11.15
2022-12-25T14:32:03.181Z,11.01
2022-12-25T14:35:06.660Z,10.97
2022-12-25T14:38:24.208Z,10.88
2022-12-25T14:41:39.324Z,10.84
2022-12-25T14:44:41.779Z,10.77
2022-12-25T14:47:51.959Z,10.70
2022-12-25T14:51:00.207Z,10.59
2022-12-25T14:54:04.129Z,10.65
2022-12-25T14:57:06.411Z,10.59
2022-12-25T15:00:09.456Z,10.47
2022-12-25T15:03:21.124Z,10.37
2022-12-25T15:06:24.908Z,10.26
2022-12-25T15:09:28.069Z,10.29
2022-12-25T15:12:30.748Z,10.29
2022-12-25T15:15:33.825Z,10.26
2022-12-25T15:18:38.200Z,10.23
2022-12-25T15:21:40.528Z,10.17
2022-12-25T15:24:43.181Z,10.11
2022-12-25T15:27:45.571Z,9.98
2022-12-25T15:30:49.868Z,9.78
2022-12-25T15:33:53.619Z,9.62
2022-12-25T15:36:56.598Z,9.49
2022-12-25T15:39:59.604Z,9.40
2022-12-25T15:43:11.201Z,9.20
2022-12-25T15:46:24.944Z,9.16
2022-12-25T15:49:27.542Z,9.11
2022-12-25T15:52:31.685Z,9.11
2022-12-25T15:55:34.645Z,9.03
2022-12-25T15:58:37.092Z,8.91
2022-12-25T16:01:43.091Z,8.87
2022-12-25T16:04:45.863Z,8.81
2022-12-25T16:07:48.455Z,8.76
2022-12-25T16:10:51.054Z,8.73
2022-12-25T16:13:53.983Z,8.74
2022-12-25T16:16:56.570Z,8.80
2022-12-25T16:19:59.139Z,9.00
2022-12-25T16:23:01.914Z,9.09
2022-12-25T16:26:04.325Z,9.30
2022-12-25T16:29:07.684Z,9.27
2022-12-25T16:32:14.114Z,9.26
2022-12-25T16:35:17.801Z,9.21
2022-12-25T16:38:20.213Z,9.13
2022-12-25T16:41:22.958Z,9.08
2022-12-25T16:44:25.404Z,9.04
2022-12-25T16:47:28.057Z,9.00
2022-12-25T16:50:30.448Z,9.00
2022-12-25T16:53:33.881Z,8.93
2022-12-25T16:56:36.743Z,8.98
2022-12-25T16:59:39.394Z,8.83
2022-12-25T17:02:41.990Z,8.73
2022-12-25T17:05:44.849Z,8.65
2022-12-25T17:08:47.625Z,8.69
2022-12-25T17:11:50.361Z,8.55
2022-12-25T17:14:52.736Z,8.47
2022-12-25T17:17:55.357Z,8.46
2022-12-25T17:20:57.813Z,8.38
2022-12-25T17:24:03.654Z,8.40
2022-12-25T17:27:08.671Z,8.37
2022-12-25T17:30:11.526Z,8.25
2022-12-25T17:33:13.894Z,8.26
2022-12-25T17:36:17.767Z,8.18
2022-12-25T17:39:20.103Z,8.22
2022-12-25T17:42:22.676Z,8.19
2022-12-25T17:45:25.091Z,8.17
2022-12-25T17:48:27.830Z,8.13
2022-12-25T17:51:30.809Z,8.10
2022-12-25T17:54:33.657Z,8.15
2022-12-25T17:57:36.033Z,8.06
2022-12-25T18:00:38.793Z,8.03
2022-12-25T18:03:42.021Z,8.03
2022-12-25T18:06:44.393Z,7.94
2022-12-25T18:09:46.972Z,7.89
2022-12-25T18:12:49.593Z,7.83
2022-12-25T18:15:52.633Z,7.81
2022-12-25T18:18:55.124Z,7.79
2022-12-25T18:21:57.882Z,7.84
2022-12-25T18:25:00.205Z,7.77
2022-12-25T18:28:03.069Z,7.66
2022-12-25T18:31:09.518Z,7.57
2022-12-25T18:34:12.296Z,7.47
2022-12-25T18:37:14.705Z,7.38
2022-12-25T18:40:17.267Z,7.26
2022-12-25T18:43:20.786Z,7.24
2022-12-25T18:46:43.380Z,7.17
2022-12-25T18:49:45.761Z,7.16
2022-12-25T18:52:51.619Z,7.12
2022-12-25T18:55:56.505Z,7.08
2022-12-25T18:58:59.795Z,7.11
2022-12-25T19:02:02.362Z,7.15
2022-12-25T19:05:05.729Z,7.21
2022-12-25T19:08:08.229Z,7.21
2022-12-25T19:11:10.783Z,7.22
2022-12-25T19:14:13.217Z,7.27
2022-12-25T19:17:16.369Z,7.34
2022-12-25T19:20:18.728Z,7.42
2022-12-25T19:23:21.498Z,7.48
2022-12-25T19:26:23.894Z,7.57
2022-12-25T19:29:26.589Z,7.59
2022-12-25T19:32:29.432Z,7.63
2022-12-25T19:35:32.139Z,7.62
2022-12-25T19:38:35.038Z,7.75
2022-12-25T19:41:38.057Z,7.78
2022-12-25T19:44:40.441Z,7.86
2022-12-25T19:47:44.317Z,7.84
2022-12-25T19:50:46.834Z,7.82
2022-12-25T19:53:49.646Z,7.74
2022-12-25T19:56:52.014Z,7.78
2022-12-25T19:59:54.753Z,7.82
2022-12-25T20:02:57.520Z,7.84
2022-12-25T20:06:00.869Z,8.08
2022-12-25T20:09:08.250Z,8.52
2022-12-25T20:12:11.282Z,8.75
2022-12-25T20:15:13.638Z,8.78
2022-12-25T20:18:16.955Z,8.83
2022-12-25T20:21:20.476Z,8.80
2022-12-25T20:24:24.661Z,8.76
2022-12-25T20:27:27.170Z,8.67
2022-12-25T20:30:29.899Z,8.54
2022-12-25T20:33:33.112Z,8.61
2022-12-25T20:36:37.764Z,8.49
2022-12-25T20:39:40.572Z,8.46
2022-12-25T20:42:43.435Z,8.49
2022-12-25T20:45:45.820Z,8.46
2022-12-25T20:48:48.529Z,8.54
2022-12-25T20:51:50.796Z,8.58
2022-12-25T20:54:53.383Z,8.59
2022-12-25T20:57:55.734Z,8.70
2022-12-25T21:00:58.475Z,8.73
2022-12-25T21:04:01.002Z,8.72
2022-12-25T21:07:03.809Z,8.71
2022-12-25T21:10:06.720Z,8.74
2022-12-25T21:13:09.413Z,8.70
2022-12-25T21:16:14.176Z,8.64
2022-12-25T21:19:16.762Z,8.62
2022-12-25T21:22:19.119Z,8.81
2022-12-25T21:25:21.916Z,8.82
2022-12-25T21:28:27.275Z,8.79
2022-12-25T21:31:30.993Z,8.78
2022-12-25T21:34:33.543Z,8.80
2022-12-25T21:37:36.425Z,8.74
2022-12-25T21:40:41.287Z,8.79
2022-12-25T21:43:43.932Z,8.84
2022-12-25T21:46:46.385Z,8.83
2022-12-25T21:50:07.804Z,8.86
2022-12-25T21:53:14.860Z,8.82
2022-12-25T21:56:17.646Z,8.80
2022-12-25T21:59:20.793Z,8.81
2022-12-25T22:02:23.625Z,8.82
2022-12-25T22:05:44.882Z,8.83
2022-12-25T22:08:47.280Z,8.77
2022-12-25T22:12:08.798Z,8.69
2022-12-25T22:15:11.461Z,8.62
2022-12-25T22:18:32.917Z,8.67
2022-12-25T22:21:35.256Z,8.58
2022-12-25T22:24:39.379Z,8.60
2022-12-25T22:27:42.563Z,8.55
2022-12-25T22:30:45.643Z,8.52
2022-12-25T22:33:48.009Z,8.48
2022-12-25T22:36:50.648Z,8.44
2022-12-25T22:39:52.960Z,8.46
2022-12-25T22:42:56.315Z,8.54
2022-12-25T22:46:01.868Z,8.51
2022-12-25T22:49:04.671Z,8.53
2022-12-25T22:52:09.754Z,8.51
2022-12-25T22:55:15.495Z,8.56
2022-12-25T22:58:18.354Z,8.57
2022-12-25T23:01:21.210Z,8.50
2022-12-25T23:04:23.921Z,8.47
2022-12-25T23:07:26.580Z,8.50
2022-12-25T23:10:29.019Z,8.48
2022-12-25T23:13:54.796Z,8.45
2022-12-25T23:16:57.420Z,8.55
2022-12-25T23:20:20.633Z,8.69
2022-12-25T23:23:41.485Z,8.79
2022-12-25T23:26:44.539Z,8.70
2022-12-25T23:29:46.888Z,8.61
2022-12-25T23:32:49.521Z,8.58
2022-12-25T23:35:51.959Z,8.56
2022-12-25T23:38:54.631Z,8.58
2022-12-25T23:41:57.349Z,8.51
2022-12-25T23:44:59.961Z,8.49
2022-12-25T23:48:02.335Z,8.47
2022-12-25T23:51:05.608Z,8.43
2022-12-25T23:54:08.621Z,8.37
2022-12-25T23:57:11.252Z,8.31
